.
WxDataArchive / Data Records for 2008-10-10
2008-10-09 October 2008 2008-10-11

Data Records for Friday, 10 October 2008

Time	Temp	Chill	HIndex	Humid	Dewpt	 Wind 	HiWind	WindDir	Rain 	Barom 
-----	----	-----	------	-----	-----	------	------	-------	-----	----- 
00:00	42.9	42.9	42.9	83	38.1	0	0	---	0.00	30.094 
00:05	42.8	42.8	42.8	83	38.0	0	0	---	0.00	30.094 
00:10	42.6	42.6	42.6	84	38.1	0	0	---	0.00	30.095 
00:15	42.5	42.5	42.5	84	38.0	0	0	---	0.00	30.097 
00:20	42.3	42.3	42.3	84	37.8	0	0	---	0.00	30.101 
00:25	42.2	42.2	42.2	84	37.7	0	0	---	0.00	30.100 
00:30	42.1	42.1	42.1	85	37.9	0	0	---	0.00	30.097 
00:35	41.8	41.8	41.8	85	37.6	0	0	---	0.00	30.098 
00:40	41.6	41.6	41.6	86	37.7	0	0	---	0.00	30.100 
00:45	41.5	41.5	41.5	86	37.6	0	0	---	0.00	30.104 
00:50	41.3	41.3	41.3	86	37.4	0	0	---	0.00	30.105 
00:55	41.2	41.2	41.2	86	37.3	0	0	---	0.00	30.107 
01:00	41.1	41.1	41.1	87	37.5	0	0	---	0.00	30.107 
01:05	40.9	40.9	40.9	87	37.3	0	0	---	0.00	30.105 
01:10	40.8	40.8	40.8	88	37.5	0	0	---	0.00	30.106 
01:15	40.6	40.6	40.6	88	37.3	0	0	---	0.00	30.107 
01:20	40.5	40.5	40.5	88	37.2	0	0	---	0.00	30.108 
01:25	40.3	40.3	40.3	88	37.0	0	0	---	0.00	30.110 
01:30	40.3	40.3	40.3	88	37.0	0	0	---	0.00	30.110 
01:35	40.2	40.2	40.2	89	37.2	0	0	---	0.00	30.110 
01:40	40.2	40.2	40.2	89	37.2	0	0	---	0.00	30.112 
01:45	40.1	40.1	40.1	90	37.4	0	0	---	0.00	30.115 
01:50	40.1	40.1	40.1	90	37.4	0	0	---	0.00	30.116 
01:55	39.9	39.9	39.9	90	37.2	0	0	---	0.00	30.116 
02:00	39.9	39.9	39.9	90	37.2	0	0	---	0.00	30.116 
02:05	39.9	39.9	39.9	90	37.2	0	0	---	0.00	30.117 
02:10	39.9	39.9	39.9	91	37.5	0	0	---	0.00	30.118 
02:15	39.8	39.8	39.8	91	37.4	0	0	---	0.00	30.117 
02:20	39.8	39.8	39.8	91	37.4	0	0	---	0.00	30.118 
02:25	39.6	39.6	39.6	91	37.2	0	0	---	0.00	30.119 
02:30	39.6	39.6	39.6	91	37.2	0	0	---	0.00	30.121 
02:35	39.5	39.5	39.5	91	37.1	0	0	---	0.00	30.121 
02:40	39.5	39.5	39.5	91	37.1	0	0	---	0.00	30.121 
02:45	39.3	39.3	39.3	92	37.2	0	0	---	0.00	30.122 
02:50	39.3	39.3	39.3	92	37.2	0	0	---	0.00	30.123 
02:55	39.3	39.3	39.3	92	37.2	0	0	---	0.00	30.123 
03:00	39.2	39.2	39.2	92	37.1	0	0	---	0.00	30.124 
03:05	39.2	39.2	39.2	92	37.1	0	0	---	0.00	30.125 
03:10	39.1	39.1	39.1	92	37.0	0	0	---	0.00	30.126 
03:15	39.1	39.1	39.1	92	37.0	0	0	---	0.00	30.126 
03:20	39.1	39.1	39.1	92	37.0	0	0	---	0.00	30.126 
03:25	39.1	39.1	39.1	92	37.0	0	0	---	0.00	30.125 
03:30	38.9	38.9	38.9	92	36.8	0	0	---	0.00	30.128 
03:35	38.9	38.9	38.9	92	36.8	0	0	---	0.00	30.129 
03:40	38.8	38.8	38.8	92	36.7	0	0	---	0.00	30.130 
03:45	38.8	38.8	38.8	93	37.0	0	0	---	0.00	30.129 
03:50	38.6	38.6	38.6	93	36.8	0	0	---	0.00	30.133 
03:55	38.5	38.5	38.5	93	36.7	0	0	---	0.00	30.134 
04:00	38.5	38.5	38.5	93	36.7	0	0	---	0.00	30.136 
04:05	38.5	38.5	38.5	93	36.7	0	0	---	0.00	30.138 
04:10	38.3	38.3	38.3	93	36.5	0	0	---	0.00	30.140 
04:15	38.3	38.3	38.3	93	36.5	0	0	---	0.00	30.141 
04:20	38.2	38.2	38.2	93	36.4	0	0	---	0.00	30.142 
04:25	38.2	38.2	38.2	93	36.4	0	0	---	0.00	30.144 
04:30	38.0	38.0	38.0	93	36.2	0	0	---	0.00	30.146 
04:35	38.0	38.0	38.0	93	36.2	0	0	---	0.00	30.149 
04:40	38.0	38.0	38.0	93	36.2	0	0	---	0.00	30.150 
04:45	38.0	38.0	38.0	93	36.2	0	0	---	0.00	30.151 
04:50	37.9	37.9	37.9	93	36.1	0	0	---	0.00	30.153 
04:55	37.9	37.9	37.9	94	36.3	0	0	---	0.00	30.152 
05:00	37.9	37.9	37.9	94	36.3	0	0	---	0.00	30.154 
05:05	37.9	37.9	37.9	94	36.3	0	0	---	0.00	30.161 
05:10	37.9	37.9	37.9	94	36.3	0	0	---	0.00	30.162 
05:15	37.8	37.8	37.8	94	36.2	0	0	---	0.00	30.164 
05:20	37.8	37.8	37.8	94	36.2	0	0	---	0.00	30.165 
05:25	37.6	37.6	37.6	94	36.0	0	0	---	0.00	30.166 
05:30	37.6	37.6	37.6	94	36.0	0	0	---	0.00	30.166 
05:35	37.8	37.8	37.8	94	36.2	0	0	---	0.00	30.168 
05:40	37.6	37.6	37.6	94	36.0	0	0	---	0.00	30.170 
05:45	37.6	37.6	37.6	94	36.0	0	0	---	0.00	30.176 
05:50	37.6	37.6	37.6	94	36.0	0	0	---	0.00	30.178 
05:55	37.6	37.6	37.6	94	36.0	0	0	---	0.00	30.178 
06:00	37.6	37.6	37.6	94	36.0	0	0	---	0.00	30.179 
06:05	37.5	37.5	37.5	94	35.9	0	0	---	0.00	30.186 
06:10	37.5	37.5	37.5	94	35.9	0	0	---	0.00	30.187 
06:15	37.5	37.5	37.5	94	35.9	0	0	---	0.00	30.187 
06:20	37.3	37.3	37.3	94	35.7	0	0	---	0.00	30.189 
06:25	37.3	37.3	37.3	94	35.7	0	0	---	0.00	30.194 
06:30	37.3	37.3	37.3	94	35.7	0	0	---	0.00	30.197 
06:35	37.3	37.3	37.3	94	35.7	0	0	---	0.00	30.198 
06:40	37.3	37.3	37.3	94	35.7	0	0	---	0.00	30.200 
06:45	37.3	37.3	37.3	94	35.7	0	0	---	0.00	30.201 
06:50	37.2	37.2	37.2	94	35.6	0	0	---	0.00	30.201 
06:55	37.2	37.2	37.2	95	35.9	0	0	---	0.00	30.201 
07:00	37.2	37.2	37.2	95	35.9	0	0	---	0.00	30.202 
07:05	37.3	37.3	37.3	95	36.0	0	0	---	0.00	30.207 
07:10	37.3	37.3	37.3	95	36.0	0	0	---	0.00	30.206 
07:15	37.5	37.5	37.5	95	36.2	0	0	---	0.00	30.208 
07:20	37.6	37.6	37.6	95	36.3	0	0	---	0.00	30.209 
07:25	37.9	37.9	37.9	95	36.6	0	0	---	0.00	30.212 
07:30	38.2	38.2	38.2	95	36.9	0	0	---	0.00	30.218 
07:35	38.5	38.5	38.5	95	37.2	0	0	---	0.00	30.218 
07:40	38.9	38.9	38.9	95	37.6	0	0	---	0.00	30.220 
07:45	39.2	39.2	39.2	95	37.9	0	0	---	0.00	30.223 
07:50	39.6	39.6	39.6	96	38.6	0	0	---	0.00	30.224 
07:55	40.2	40.2	40.2	96	39.2	0	0	---	0.00	30.227 
08:00	40.6	40.6	40.6	96	39.5	0	0	---	0.00	30.227 
08:05	41.2	41.2	41.2	96	40.1	0	0	---	0.00	30.233 
08:10	41.6	41.6	41.6	96	40.5	0	0	---	0.00	30.232 
08:15	42.5	42.5	42.5	96	41.4	0	1	270	0.00	30.230 
08:20	43.2	43.2	43.2	96	42.1	0	0	---	0.00	30.233 
08:25	44.1	44.1	44.1	96	43.0	0	1	270	0.00	30.232 
08:30	44.9	44.9	44.9	96	43.8	0	1	270	0.00	30.232 
08:35	45.7	45.7	45.7	95	44.4	0	1	270	0.00	30.231 
08:40	46.4	46.4	46.4	94	44.8	0	1	270	0.00	30.232 
08:45	47.1	47.1	47.1	86	43.1	0	1	270	0.00	30.233 
08:50	48.3	48.3	48.3	80	42.4	0	3	270	0.00	30.230 
08:55	49.8	49.8	49.8	74	41.9	1	3	270	0.00	30.231 
09:00	51.1	51.1	51.1	72	42.4	0	2	292	0.00	30.231 
09:05	52.6	52.6	52.6	67	42.0	0	1	292	0.00	30.232 
09:10	54.1	54.1	54.1	60	40.5	0	3	292	0.00	30.229 
09:15	55.4	55.4	55.4	54	39.0	0	2	292	0.00	30.232 
09:20	56.5	56.5	56.5	49	37.6	1	4	0	0.00	30.230 
09:25	57.2	57.2	57.2	52	39.7	1	4	45	0.00	30.229 
09:30	57.5	57.5	57.5	50	39.0	2	4	90	0.00	30.228 
09:35	58.1	58.1	58.1	50	39.6	0	1	90	0.00	30.229 
09:40	59.0	59.0	59.0	50	40.4	1	3	90	0.00	30.228 
09:45	59.5	59.5	59.5	48	39.8	1	3	90	0.00	30.223 
09:50	60.2	60.2	60.2	50	41.5	0	3	90	0.00	30.226 
09:55	60.7	60.7	60.7	46	39.8	1	3	90	0.00	30.225 
10:00	60.9	60.9	60.9	45	39.4	1	3	90	0.00	30.228 
10:05	61.3	61.3	61.3	46	40.3	0	1	90	0.00	30.230 
10:10	62.1	62.1	62.1	41	38.1	1	2	90	0.00	30.231 
10:15	62.7	62.7	62.7	39	37.4	1	5	90	0.00	30.231 
10:20	63.2	63.2	63.2	37	36.5	1	3	90	0.00	30.230 
10:25	63.5	63.5	63.5	35	35.4	1	4	90	0.00	30.225 
10:30	63.4	63.4	63.4	38	37.3	2	5	90	0.00	30.225 
10:35	63.7	63.7	63.7	34	34.8	1	4	90	0.00	30.222 
10:40	64.2	64.2	64.2	31	32.9	2	7	90	0.00	30.221 
10:45	64.3	64.3	64.3	32	33.8	3	7	90	0.00	30.219 
10:50	64.3	64.3	64.3	32	33.8	2	5	90	0.00	30.219 
10:55	64.8	64.8	64.8	34	35.8	2	4	90	0.00	30.216 
11:00	65.3	65.3	65.3	33	35.5	2	5	90	0.00	30.210 
11:05	65.8	65.8	65.8	30	33.5	2	4	90	0.00	30.211 
11:10	66.0	66.0	66.0	28	32.0	2	5	90	0.00	30.209 
11:15	66.4	66.4	66.4	29	33.2	2	6	90	0.00	30.207 
11:20	66.8	66.8	66.8	28	32.6	1	4	90	0.00	30.205 
11:25	67.1	67.1	67.1	28	32.9	2	5	135	0.00	30.204 
11:30	67.3	67.3	67.3	26	31.2	1	5	90	0.00	30.202 
11:35	67.6	67.6	67.6	26	31.5	1	4	90	0.00	30.203 
11:40	67.8	67.8	67.8	25	30.7	2	4	112	0.00	30.203 
11:45	67.9	67.9	67.9	27	32.7	1	3	112	0.00	30.203 
11:50	67.9	67.9	67.9	26	31.7	2	5	112	0.00	30.203 
11:55	68.1	68.1	68.1	24	29.9	1	3	112	0.00	30.202 
12:00	68.6	68.6	68.6	25	31.4	1	6	158	0.00	30.200 
12:05	68.9	68.9	68.9	28	34.4	1	5	68	0.00	30.202 
12:10	69.4	69.4	69.4	27	34.0	1	5	90	0.00	30.201 
12:15	69.4	69.4	69.4	26	33.0	2	7	112	0.00	30.201 
12:20	69.6	69.6	69.6	24	31.2	1	3	112	0.00	30.201 
12:25	69.8	69.8	69.8	24	31.4	2	3	112	0.00	30.200 
12:30	69.9	69.9	69.9	22	29.3	1	5	90	0.00	30.198 
12:35	69.9	69.9	69.9	23	30.4	2	4	112	0.00	30.197 
12:40	70.3	70.3	70.3	25	32.8	1	5	90	0.00	30.193 
12:45	70.4	70.4	70.4	24	31.9	1	3	90	0.00	30.190 
12:50	70.8	70.8	70.8	21	28.9	1	4	112	0.00	30.187 
12:55	70.8	70.8	70.8	20	27.7	1	6	90	0.00	30.185 
13:00	70.9	70.9	70.9	23	31.2	1	3	112	0.00	30.181 
13:05	70.9	70.9	70.9	24	32.3	1	5	90	0.00	30.181 
13:10	71.1	71.1	71.1	21	29.2	2	5	90	0.00	30.180 
13:15	71.5	71.5	71.5	22	30.7	1	4	90	0.00	30.177 
13:20	71.5	71.5	71.5	23	31.7	1	3	90	0.00	30.175 
13:25	71.5	71.5	71.5	21	29.5	1	5	112	0.00	30.171 
13:30	71.6	71.6	71.6	21	29.6	1	4	112	0.00	30.170 
13:35	71.8	71.8	71.8	20	28.6	2	6	112	0.00	30.170 
13:40	71.8	71.8	71.8	21	29.8	3	9	112	0.00	30.169 
13:45	71.8	71.8	71.8	20	28.6	2	4	90	0.00	30.168 
13:50	71.8	71.8	71.8	20	28.6	2	6	90	0.00	30.166 
13:55	72.0	72.0	72.0	20	28.7	2	6	135	0.00	30.163 
14:00	72.1	72.1	72.1	22	31.2	1	4	135	0.00	30.162 
14:05	72.3	72.3	72.3	22	31.3	1	3	112	0.00	30.163 
14:10	72.5	72.5	72.5	22	31.5	2	4	112	0.00	30.159 
14:15	72.7	72.7	72.7	24	33.8	2	5	112	0.00	30.154 
14:20	72.8	72.8	72.8	20	29.4	0	2	90	0.00	30.153 
14:25	72.8	72.8	72.8	21	30.6	2	6	112	0.00	30.153 
14:30	72.8	72.8	72.8	20	29.4	1	4	90	0.00	30.154 
14:35	73.0	73.0	73.0	20	29.6	1	4	90	0.00	30.152 
14:40	73.2	73.2	73.2	20	29.7	3	7	90	0.00	30.151 
14:45	73.3	73.3	73.3	20	29.8	2	5	90	0.00	30.147 
14:50	73.3	73.3	73.3	19	28.5	3	9	90	0.00	30.151 
14:55	73.5	73.5	73.5	22	32.3	1	3	22	0.00	30.153 
15:00	73.5	73.5	73.5	21	31.2	2	4	90	0.00	30.149 
15:05	73.7	73.7	73.7	19	28.9	2	5	90	0.00	30.148 
15:10	73.5	73.5	73.5	19	28.7	2	5	135	0.00	30.150 
15:15	73.3	73.3	73.3	19	28.5	2	6	90	0.00	30.149 
15:20	73.5	73.5	73.5	19	28.7	2	5	90	0.00	30.153 
15:25	73.5	73.5	73.5	19	28.7	2	5	90	0.00	30.153 
15:30	73.3	73.3	73.3	20	29.8	2	6	90	0.00	30.153 
15:35	73.3	73.3	73.3	20	29.8	2	4	90	0.00	30.154 
15:40	73.3	73.3	73.3	20	29.8	1	6	112	0.00	30.154 
15:45	73.3	73.3	73.3	19	28.5	2	7	90	0.00	30.154 
15:50	73.3	73.3	73.3	20	29.8	2	4	90	0.00	30.153 
15:55	73.3	73.3	73.3	22	32.2	1	4	90	0.00	30.154 
16:00	73.3	73.3	73.3	22	32.2	2	4	112	0.00	30.153 
16:05	73.3	73.3	73.3	20	29.8	3	6	90	0.00	30.154 
16:10	73.2	73.2	73.2	21	30.9	2	5	90	0.00	30.155 
16:15	73.2	73.2	73.2	20	29.7	2	6	112	0.00	30.155 
16:20	73.2	73.2	73.2	20	29.7	2	5	90	0.00	30.154 
16:25	73.0	73.0	73.0	20	29.6	1	4	112	0.00	30.154 
16:30	73.0	73.0	73.0	20	29.6	2	5	90	0.00	30.154 
16:35	73.0	73.0	73.0	21	30.8	2	4	90	0.00	30.154 
16:40	72.8	72.8	72.8	20	29.4	2	4	90	0.00	30.155 
16:45	72.8	72.8	72.8	21	30.6	2	6	112	0.00	30.155 
16:50	72.7	72.7	72.7	21	30.5	2	5	90	0.00	30.155 
16:55	72.5	72.5	72.5	23	32.6	1	6	90	0.00	30.156 
17:00	72.1	72.1	72.1	22	31.2	1	3	90	0.00	30.156 
17:05	72.0	72.0	72.0	23	32.2	1	3	90	0.00	30.156 
17:10	71.8	71.8	71.8	23	32.0	1	5	68	0.00	30.156 
17:15	71.6	71.6	71.6	24	32.9	1	3	68	0.00	30.156 
17:20	71.3	71.3	71.3	24	32.6	0	2	68	0.00	30.156 
17:25	70.8	70.8	70.8	26	34.2	1	2	90	0.00	30.157 
17:30	70.3	70.3	70.3	26	33.8	0	2	90	0.00	30.157 
17:35	69.9	69.9	69.9	28	35.3	1	2	90	0.00	30.157 
17:40	69.4	69.4	69.4	28	34.9	1	3	68	0.00	30.157 
17:45	69.1	69.1	69.1	29	35.5	0	3	90	0.00	30.160 
17:50	68.6	68.6	68.6	30	35.9	0	1	90	0.00	30.160 
17:55	67.9	67.9	67.9	32	36.9	0	1	90	0.00	30.159 
18:00	67.4	67.4	67.4	33	37.3	0	1	90	0.00	30.160 
18:05	66.6	66.6	66.6	33	36.6	0	1	90	0.00	30.160 
18:10	66.0	66.0	66.0	34	36.8	0	1	90	0.00	30.163 
18:15	65.5	65.5	65.5	35	37.1	0	1	90	0.00	30.163 
18:20	64.8	64.8	64.8	36	37.2	0	1	90	0.00	30.164 
18:25	64.2	64.2	64.2	37	37.4	0	0	---	0.00	30.167 
18:30	63.5	63.5	63.5	38	37.4	0	0	---	0.00	30.167 
18:35	63.1	63.1	63.1	38	37.1	0	1	90	0.00	30.169 
18:40	62.6	62.6	62.6	39	37.3	0	1	90	0.00	30.171 
18:45	62.4	62.4	62.4	39	37.1	0	1	90	0.00	30.172 
18:50	62.1	62.1	62.1	39	36.8	0	1	90	0.00	30.175 
18:55	62.1	62.1	62.1	39	36.8	0	3	90	0.00	30.177 
19:00	62.0	62.0	62.0	40	37.4	0	1	90	0.00	30.179 
19:05	62.0	62.0	62.0	39	36.8	0	4	90	0.00	30.175 
19:10	62.1	62.1	62.1	39	36.8	0	2	90	0.00	30.176 
19:15	62.1	62.1	62.1	39	36.8	0	2	90	0.00	30.177 
19:20	62.0	62.0	62.0	40	37.4	0	0	---	0.00	30.178 
19:25	61.5	61.5	61.5	41	37.6	0	0	---	0.00	30.178 
19:30	61.0	61.0	61.0	42	37.7	0	0	---	0.00	30.179 
19:35	60.4	60.4	60.4	43	37.8	0	0	---	0.00	30.179 
19:40	59.8	59.8	59.8	45	38.4	0	0	---	0.00	30.180 
19:45	59.2	59.2	59.2	46	38.4	0	0	---	0.00	30.180 
19:50	58.7	58.7	58.7	46	38.0	0	0	---	0.00	30.181 
19:55	58.3	58.3	58.3	47	38.2	0	0	---	0.00	30.184 
20:00	57.8	57.8	57.8	48	38.2	0	0	---	0.00	30.187 
20:05	57.5	57.5	57.5	48	38.0	0	1	90	0.00	30.180 
20:10	57.5	57.5	57.5	49	38.5	0	2	90	0.00	30.183 
20:15	57.6	57.6	57.6	46	37.0	0	2	90	0.00	30.184 
20:20	58.1	58.1	58.1	47	38.0	0	1	90	0.00	30.186 
20:25	58.1	58.1	58.1	47	38.0	0	2	90	0.00	30.187 
20:30	58.1	58.1	58.1	47	38.0	0	1	90	0.00	30.187 
20:35	58.0	58.0	58.0	47	37.9	0	1	90	0.00	30.188 
20:40	58.0	58.0	58.0	48	38.4	0	1	90	0.00	30.188 
20:45	58.0	58.0	58.0	48	38.4	1	2	90	0.00	30.189 
20:50	58.0	58.0	58.0	48	38.4	1	3	90	0.00	30.189 
20:55	58.0	58.0	58.0	49	38.9	1	3	90	0.00	30.193 
21:00	58.0	58.0	58.0	50	39.5	1	2	90	0.00	30.193 
21:05	57.8	57.8	57.8	50	39.3	1	3	90	0.00	30.186 
21:10	57.8	57.8	57.8	51	39.8	1	4	90	0.00	30.188 
21:15	57.6	57.6	57.6	52	40.1	1	2	68	0.00	30.192 
21:20	57.5	57.5	57.5	54	41.0	1	3	90	0.00	30.190 
21:25	57.3	57.3	57.3	54	40.8	1	4	112	0.00	30.190 
21:30	57.2	57.2	57.2	56	41.6	1	3	112	0.00	30.192 
21:35	57.0	57.0	57.0	56	41.5	1	2	112	0.00	30.193 
21:40	56.9	56.9	56.9	57	41.8	1	3	112	0.00	30.194 
21:45	56.7	56.7	56.7	58	42.1	0	2	112	0.00	30.195 
21:50	56.5	56.5	56.5	59	42.3	0	1	112	0.00	30.195 
21:55	56.2	56.2	56.2	60	42.5	0	1	112	0.00	30.197 
22:00	55.7	55.7	55.7	61	42.5	0	1	112	0.00	30.197 
22:05	55.4	55.4	55.4	62	42.6	0	1	112	0.00	30.194 
22:10	55.1	55.1	55.1	64	43.1	0	1	112	0.00	30.196 
22:15	54.8	54.8	54.8	65	43.3	0	2	112	0.00	30.197 
22:20	54.5	54.5	54.5	66	43.4	0	2	112	0.00	30.197 
22:25	54.2	54.2	54.2	67	43.5	0	3	112	0.00	30.197 
22:30	54.1	54.1	54.1	68	43.8	1	3	90	0.00	30.197 
22:35	53.8	53.8	53.8	69	43.9	1	4	90	0.00	30.197 
22:40	53.6	53.6	53.6	69	43.7	1	2	90	0.00	30.198 
22:45	53.5	53.5	53.5	69	43.6	0	2	90	0.00	30.197 
22:50	53.3	53.3	53.3	70	43.8	1	3	90	0.00	30.196 
22:55	53.2	53.2	53.2	70	43.7	1	2	90	0.00	30.198 
23:00	53.1	53.1	53.1	71	43.9	1	2	90	0.00	30.197 
23:05	52.9	52.9	52.9	72	44.1	0	2	90	0.00	30.194 
23:10	52.8	52.8	52.8	72	44.0	0	1	90	0.00	30.195 
23:15	52.6	52.6	52.6	72	43.8	0	1	90	0.00	30.196 
23:20	52.3	52.3	52.3	73	43.9	0	1	90	0.00	30.198 
23:25	52.2	52.2	52.2	73	43.8	0	1	90	0.00	30.200 
23:30	52.0	52.0	52.0	74	44.0	0	1	90	0.00	30.202 
23:35	51.7	51.7	51.7	74	43.7	0	2	90	0.00	30.202 
23:40	51.7	51.7	51.7	75	44.0	0	1	90	0.00	30.205 
23:45	51.6	51.6	51.6	75	43.9	0	1	90	0.00	30.206 
23:50	51.4	51.4	51.4	75	43.7	0	1	90	0.00	30.207 
23:55	51.3	51.3	51.3	76	44.0	0	0	---	0.00	30.207 

CoCoRaHS
IN-AL-39
A2 Web Hosting
Creative Commons License
GoDaddy
Look for:

loaded 2017-12-12 14:50:58 • last modified 2010-11-18 10:43:29
Privacy PolicyDisclaimer
• wx.awcolley.com is powered by PmWiki v.2002016 •
• all content (unless otherwise noted) © 2017 A W Colley